NCAR-RAP Real-Time Weather Data

Output produced by METARs form (10 April 2020  07:30 UTC)
found at http://weather.rap.ucar.edu/surface/
 
KPNS 100714Z 01010KT 5SM VCTS +RA BR FEW013 BKN038 OVC075 18/17 A2989 RMK AO2 LTG DSNT E-SW TSE08 P0017 T01830172
KPNS 100704Z 34013KT 3SM +TSRA BR FEW010 BKN036 OVC046 19/18 A2991 RMK AO2 LTG DSNT NE-S P0014 T01890178
KPNS 100653Z 33015G29KT 1 1/4SM R17/4500VP6000FT +TSRA BR FEW010 BKN024 OVC032 19/18 A2993 RMK AO2 PK WND 36034/0635 LTG DSNT ALQDS RAB15 TSB37 SLP136 P0041 T01940178
KPNS 100637Z 35025G34KT 2 1/2SM R17/5000VP6000FT +TSRA BKN025 OVC033 22/18 A2988 RMK AO2 PK WND 36034/0635 LTG DSNT W-NE RAB15 TSB37 PRESRR P0006 T02170178
KPNS 100633Z 34025G32KT 4SM R17/6000VP6000FT VCTS +RA BKN024 OVC033 23/19 A2987 RMK AO2 PK WND 34032/0633 LTG DSNT W-NE RAB15 PRESRR P0002 T02280194
KPNS 100624Z 33010KT 10SM VCTS -RA SCT024 BKN033 24/20 A2985 RMK AO2 LTG DSNT W-NE RAB15 PRESRR P0000 T02390200
KPNS 100553Z 33006KT 9SM SCT024 BKN032 BKN045 24/21 A2983 RMK AO2 LTG DSNT N SLP101 T02390211 10261 20239 403110239 53006
KPNS 100453Z 32005KT 6SM BR FEW012 24/22 A2980 RMK AO2 SLP092 T02390222
KPNS 100353Z 32005KT 6SM BR FEW008 24/22 A2981 RMK AO2 SLP097 T02390222
KPNS 100336Z 28006KT 7SM FEW009 24/22 A2982 RMK AO2 T02390222
KPNS 100253Z 27008KT 7SM CLR 24/22 A2981 RMK AO2 SLP094 T02440222 53019
KPNS 100153Z 24007KT 8SM CLR 24/22 A2979 RMK AO2 SLP088 T02440217
KPNS 100053Z 22007KT 9SM CLR 25/21 A2976 RMK AO2 SLP078 T02500211
KPNS 092353Z 22010KT 8SM CLR 26/21 A2975 RMK AO2 SLP076 T02610211 10311 20261 56010
KPNS 092253Z 21009KT 8SM CLR 28/21 A2976 RMK AO2 SLP078 T02780211
KPNS 092153Z 18009KT 8SM CLR 29/22 A2977 RMK AO2 SLP080 T02940217
KPNS 092053Z 19012KT 9SM CLR 30/22 A2978 RMK AO2 SLP086 T03000217 58020
KPNS 091953Z AUTO 19013KT 9SM CLR 29/21 A2980 RMK AO2 SLP093 T02940211
KPNS 091853Z 18008KT 9SM FEW047 29/21 A2983 RMK AO2 SLP101 T02940211
KPNS 091753Z 16007KT 9SM SCT038 BKN047 30/21 A2984 RMK AO2 SLP105 T03000211 10306 20244 56012
KPNS 091747Z 14006KT 9SM SCT038 29/21 A2984 RMK AO2
KPNS 091653Z 00000KT 9SM SCT027 29/21 A2985 RMK AO2 SLP109 T02890206
KPNS 091649Z 30006KT 9SM SCT027 29/21 A2985 RMK AO2
KPNS 091632Z VRB03KT 8SM BKN025 BKN031 28/21 A2986 RMK AO2 T02830206
KPNS 091625Z 28006KT 8SM SCT023 28/21 A2987 RMK AO2 T02830211
KPNS 091553Z 32008KT 7SM BKN021 BKN029 28/21 A2988 RMK AO2 SLP117 T02780211
KPNS 091453Z 30007KT 7SM OVC019 26/21 A2988 RMK AO2 SLP119 T02560206 51021
KPNS 091353Z 29013G18KT 8SM BKN016 26/21 A2985 RMK AO2 SLP109 T02610206
KPNS 091253Z 29006KT 8SM OVC017 25/21 A2985 RMK AO2 SLP109 T02500211
KPNS 091153Z 28009KT 8SM OVC021 24/21 A2982 RMK AO2 SLP098 T02440211 10244 20239 51014
KPNS 091053Z 28013G19KT 10SM OVC015 24/21 A2981 RMK AO2 SLP096 T02440211
KPNS 091019Z AUTO 27009KT 10SM OVC015 24/22 A2979 RMK AO2 T02440217
KPNS 090953Z AUTO 26012G19KT 10SM OVC012 24/22 A2979 RMK AO2 SLP088 T02440217
KPNS 090853Z AUTO 25010KT 10SM BKN011 24/22 A2978 RMK AO2 SLP084 T02390217 56015